Terminal Aerodrome Forecast
Issued by NWS St Louis, MO

Home | Current Version | Previous Version | Text Only | Print | Product List | Glossary On
Versions: 1 2 3 4 5 6 7 8 9 10 11 12 13 14 15 16 17 18
069
FTUS43 KLSX 220903 AAB
TAFCOU
TAF AMD
KCOU 220903Z 2209/2306 31011KT 6SM -SHRA SCT003 OVC007
      TEMPO 2209/2212 BKN003
     FM221200 31012KT 6SM -SHRA BKN015
     FM221500 32012KT P6SM BKN020
     FM221800 31011KT P6SM BKN040
     FM230000 VRB04KT P6SM SKC=

USA.gov is the U.S. government's official web portal to all federal, state and local government web resources and services.